sensor_id;sensor_type;location;lat;lon;timestamp;temperature;humidity
36990;DHT22;22898;52.102;5.776;2022-12-18T00:02:21;4.70;87.80
36990;DHT22;22898;52.102;5.776;2022-12-18T00:04:47;4.70;87.40
36990;DHT22;22898;52.102;5.776;2022-12-18T00:07:13;4.60;88.00
36990;DHT22;22898;52.102;5.776;2022-12-18T00:09:38;4.50;88.00
36990;DHT22;22898;52.102;5.776;2022-12-18T00:12:04;4.40;88.30
36990;DHT22;22898;52.102;5.776;2022-12-18T00:14:29;4.50;88.00
36990;DHT22;22898;52.102;5.776;2022-12-18T00:16:55;4.40;87.70
36990;DHT22;22898;52.102;5.776;2022-12-18T00:19:21;4.30;87.70
36990;DHT22;22898;52.102;5.776;2022-12-18T00:21:46;4.30;87.70
36990;DHT22;22898;52.102;5.776;2022-12-18T00:24:12;4.20;87.50
36990;DHT22;22898;52.102;5.776;2022-12-18T00:26:38;4.10;87.20
36990;DHT22;22898;52.102;5.776;2022-12-18T00:29:14;4.00;86.90
36990;DHT22;22898;52.102;5.776;2022-12-18T00:31:41;3.90;87.30
36990;DHT22;22898;52.102;5.776;2022-12-18T00:34:08;3.60;88.20
36990;DHT22;22898;52.102;5.776;2022-12-18T00:36:34;3.50;88.20
36990;DHT22;22898;52.102;5.776;2022-12-18T00:39:02;3.50;88.40
36990;DHT22;22898;52.102;5.776;2022-12-18T00:41:28;3.40;89.10
36990;DHT22;22898;52.102;5.776;2022-12-18T00:44:14;3.40;88.80
36990;DHT22;22898;52.102;5.776;2022-12-18T00:46:40;3.40;88.60
36990;DHT22;22898;52.102;5.776;2022-12-18T00:49:06;3.50;88.50
36990;DHT22;22898;52.102;5.776;2022-12-18T00:51:32;3.50;88.80
36990;DHT22;22898;52.102;5.776;2022-12-18T00:53:58;3.50;88.20
36990;DHT22;22898;52.102;5.776;2022-12-18T00:56:23;3.30;88.60
36990;DHT22;22898;52.102;5.776;2022-12-18T00:58:49;3.30;88.50
36990;DHT22;22898;52.102;5.776;2022-12-18T01:01:15;3.40;88.30
36990;DHT22;22898;52.102;5.776;2022-12-18T01:03:41;3.50;87.60
36990;DHT22;22898;52.102;5.776;2022-12-18T01:06:08;3.50;87.40
36990;DHT22;22898;52.102;5.776;2022-12-18T01:08:34;3.30;87.70
36990;DHT22;22898;52.102;5.776;2022-12-18T01:11:06;3.20;88.30
36990;DHT22;22898;52.102;5.776;2022-12-18T01:13:31;3.10;89.10
36990;DHT22;22898;52.102;5.776;2022-12-18T01:15:57;3.20;88.30
36990;DHT22;22898;52.102;5.776;2022-12-18T01:18:22;3.30;87.80
36990;DHT22;22898;52.102;5.776;2022-12-18T01:20:48;3.20;87.60
36990;DHT22;22898;52.102;5.776;2022-12-18T01:23:14;3.20;88.00
36990;DHT22;22898;52.102;5.776;2022-12-18T01:25:39;3.20;88.50
36990;DHT22;22898;52.102;5.776;2022-12-18T01:28:05;3.20;87.50
36990;DHT22;22898;52.102;5.776;2022-12-18T01:30:30;3.20;87.70
36990;DHT22;22898;52.102;5.776;2022-12-18T01:32:56;3.20;87.50
36990;DHT22;22898;52.102;5.776;2022-12-18T01:35:21;3.20;87.50
36990;DHT22;22898;52.102;5.776;2022-12-18T01:37:47;3.00;87.50
36990;DHT22;22898;52.102;5.776;2022-12-18T01:40:12;3.10;87.80
36990;DHT22;22898;52.102;5.776;2022-12-18T01:42:38;3.20;87.20
36990;DHT22;22898;52.102;5.776;2022-12-18T01:47:53;3.00;87.50
36990;DHT22;22898;52.102;5.776;2022-12-18T01:50:23;2.80;87.90
36990;DHT22;22898;52.102;5.776;2022-12-18T01:52:56;3.00;87.40
36990;DHT22;22898;52.102;5.776;2022-12-18T01:55:26;3.00;87.40
36990;DHT22;22898;52.102;5.776;2022-12-18T01:57:57;2.90;87.70
36990;DHT22;22898;52.102;5.776;2022-12-18T02:00:24;2.90;87.60
36990;DHT22;22898;52.102;5.776;2022-12-18T02:02:51;3.00;87.30
36990;DHT22;22898;52.102;5.776;2022-12-18T02:05:21;3.10;86.80
36990;DHT22;22898;52.102;5.776;2022-12-18T02:08:11;3.10;86.70
36990;DHT22;22898;52.102;5.776;2022-12-18T02:10:48;3.10;86.70
36990;DHT22;22898;52.102;5.776;2022-12-18T02:18:42;3.10;86.20
36990;DHT22;22898;52.102;5.776;2022-12-18T02:24:38;2.90;86.40
36990;DHT22;22898;52.102;5.776;2022-12-18T02:27:07;3.00;86.10
36990;DHT22;22898;52.102;5.776;2022-12-18T02:29:38;3.10;85.90
36990;DHT22;22898;52.102;5.776;2022-12-18T02:32:10;3.10;85.50
36990;DHT22;22898;52.102;5.776;2022-12-18T02:34:39;3.10;85.30
36990;DHT22;22898;52.102;5.776;2022-12-18T02:37:09;3.10;85.70
36990;DHT22;22898;52.102;5.776;2022-12-18T02:39:38;3.10;85.50
36990;DHT22;22898;52.102;5.776;2022-12-18T02:42:05;3.10;85.00
36990;DHT22;22898;52.102;5.776;2022-12-18T02:44:44;3.00;85.40
36990;DHT22;22898;52.102;5.776;2022-12-18T02:47:11;3.00;85.40
36990;DHT22;22898;52.102;5.776;2022-12-18T02:55:16;2.90;85.80
36990;DHT22;22898;52.102;5.776;2022-12-18T02:58:05;2.90;85.30
36990;DHT22;22898;52.102;5.776;2022-12-18T03:03:14;2.90;84.90
36990;DHT22;22898;52.102;5.776;2022-12-18T03:05:51;2.90;84.70
36990;DHT22;22898;52.102;5.776;2022-12-18T03:08:27;2.90;84.70
36990;DHT22;22898;52.102;5.776;2022-12-18T03:11:04;2.90;84.40
36990;DHT22;22898;52.102;5.776;2022-12-18T03:13:37;2.90;84.50
36990;DHT22;22898;52.102;5.776;2022-12-18T03:16:06;2.80;84.40
36990;DHT22;22898;52.102;5.776;2022-12-18T03:18:46;2.80;84.50
36990;DHT22;22898;52.102;5.776;2022-12-18T03:21:13;2.70;84.50
36990;DHT22;22898;52.102;5.776;2022-12-18T03:23:44;2.60;85.10
36990;DHT22;22898;52.102;5.776;2022-12-18T03:26:14;2.50;85.40
36990;DHT22;22898;52.102;5.776;2022-12-18T03:28:49;2.30;85.80
36990;DHT22;22898;52.102;5.776;2022-12-18T03:31:16;2.30;86.10
36990;DHT22;22898;52.102;5.776;2022-12-18T03:36:17;2.10;86.70
36990;DHT22;22898;52.102;5.776;2022-12-18T03:38:42;2.20;86.80
36990;DHT22;22898;52.102;5.776;2022-12-18T03:41:24;2.20;86.70
36990;DHT22;22898;52.102;5.776;2022-12-18T03:44:11;2.20;86.50
36990;DHT22;22898;52.102;5.776;2022-12-18T03:46:43;2.20;86.40
36990;DHT22;22898;52.102;5.776;2022-12-18T03:52:01;2.20;86.70
36990;DHT22;22898;52.102;5.776;2022-12-18T03:54:29;2.10;86.90
36990;DHT22;22898;52.102;5.776;2022-12-18T03:57:20;2.10;87.40
36990;DHT22;22898;52.102;5.776;2022-12-18T03:59:48;2.20;87.30
36990;DHT22;22898;52.102;5.776;2022-12-18T04:02:16;2.10;87.30
36990;DHT22;22898;52.102;5.776;2022-12-18T04:04:43;2.10;87.60
36990;DHT22;22898;52.102;5.776;2022-12-18T04:07:10;2.10;87.20
36990;DHT22;22898;52.102;5.776;2022-12-18T04:09:39;2.00;87.50
36990;DHT22;22898;52.102;5.776;2022-12-18T04:12:06;2.10;87.30
36990;DHT22;22898;52.102;5.776;2022-12-18T04:14:32;2.20;87.00
36990;DHT22;22898;52.102;5.776;2022-12-18T04:17:01;2.00;87.60
36990;DHT22;22898;52.102;5.776;2022-12-18T04:19:26;2.10;87.50
36990;DHT22;22898;52.102;5.776;2022-12-18T04:21:52;2.20;86.90
36990;DHT22;22898;52.102;5.776;2022-12-18T04:24:17;2.30;86.70
36990;DHT22;22898;52.102;5.776;2022-12-18T04:26:43;2.30;86.40
36990;DHT22;22898;52.102;5.776;2022-12-18T04:29:08;2.30;86.70
36990;DHT22;22898;52.102;5.776;2022-12-18T04:31:34;2.30;86.30
36990;DHT22;22898;52.102;5.776;2022-12-18T04:34:00;2.40;85.70
36990;DHT22;22898;52.102;5.776;2022-12-18T04:36:25;2.40;85.60
36990;DHT22;22898;52.102;5.776;2022-12-18T04:38:51;2.40;85.50
36990;DHT22;22898;52.102;5.776;2022-12-18T04:41:16;2.30;86.00
36990;DHT22;22898;52.102;5.776;2022-12-18T04:43:42;2.30;85.80
36990;DHT22;22898;52.102;5.776;2022-12-18T04:46:08;2.30;86.20
36990;DHT22;22898;52.102;5.776;2022-12-18T04:48:35;2.30;85.80
36990;DHT22;22898;52.102;5.776;2022-12-18T04:51:01;2.40;85.70
36990;DHT22;22898;52.102;5.776;2022-12-18T04:53:26;2.40;85.70
36990;DHT22;22898;52.102;5.776;2022-12-18T04:56:03;2.50;85.70
36990;DHT22;22898;52.102;5.776;2022-12-18T04:58:28;2.50;85.10
36990;DHT22;22898;52.102;5.776;2022-12-18T05:00:54;2.60;84.50
36990;DHT22;22898;52.102;5.776;2022-12-18T05:03:20;2.50;84.80
36990;DHT22;22898;52.102;5.776;2022-12-18T05:05:48;2.30;85.20
36990;DHT22;22898;52.102;5.776;2022-12-18T05:08:14;2.30;85.80
36990;DHT22;22898;52.102;5.776;2022-12-18T05:10:39;2.20;85.80
36990;DHT22;22898;52.102;5.776;2022-12-18T05:13:05;2.30;85.50
36990;DHT22;22898;52.102;5.776;2022-12-18T05:15:31;2.30;85.70
36990;DHT22;22898;52.102;5.776;2022-12-18T05:17:58;2.30;85.40
36990;DHT22;22898;52.102;5.776;2022-12-18T05:20:24;2.30;85.20
36990;DHT22;22898;52.102;5.776;2022-12-18T05:22:51;2.30;85.40
36990;DHT22;22898;52.102;5.776;2022-12-18T05:25:17;2.20;85.50
36990;DHT22;22898;52.102;5.776;2022-12-18T05:27:43;2.30;85.50
36990;DHT22;22898;52.102;5.776;2022-12-18T05:30:09;2.40;85.10
36990;DHT22;22898;52.102;5.776;2022-12-18T05:32:35;2.30;85.00
36990;DHT22;22898;52.102;5.776;2022-12-18T05:35:00;2.30;85.30
36990;DHT22;22898;52.102;5.776;2022-12-18T05:37:26;2.40;85.10
36990;DHT22;22898;52.102;5.776;2022-12-18T05:39:52;2.40;84.90
36990;DHT22;22898;52.102;5.776;2022-12-18T05:42:17;2.30;85.20
36990;DHT22;22898;52.102;5.776;2022-12-18T05:44:43;2.30;85.40
36990;DHT22;22898;52.102;5.776;2022-12-18T05:47:10;2.10;85.20
36990;DHT22;22898;52.102;5.776;2022-12-18T05:49:35;2.00;86.40
36990;DHT22;22898;52.102;5.776;2022-12-18T05:52:01;1.90;86.60
36990;DHT22;22898;52.102;5.776;2022-12-18T05:54:27;1.80;86.80
36990;DHT22;22898;52.102;5.776;2022-12-18T05:56:53;1.90;86.90
36990;DHT22;22898;52.102;5.776;2022-12-18T05:59:19;1.80;87.10
36990;DHT22;22898;52.102;5.776;2022-12-18T06:01:45;1.60;87.70
36990;DHT22;22898;52.102;5.776;2022-12-18T06:04:11;1.70;87.80
36990;DHT22;22898;52.102;5.776;2022-12-18T06:06:36;1.80;87.50
36990;DHT22;22898;52.102;5.776;2022-12-18T06:09:03;1.80;87.70
36990;DHT22;22898;52.102;5.776;2022-12-18T06:11:34;1.90;87.40
36990;DHT22;22898;52.102;5.776;2022-12-18T06:14:00;1.80;87.60
36990;DHT22;22898;52.102;5.776;2022-12-18T06:16:27;1.60;88.30
36990;DHT22;22898;52.102;5.776;2022-12-18T06:18:55;1.40;89.40
36990;DHT22;22898;52.102;5.776;2022-12-18T06:21:21;1.30;90.00
36990;DHT22;22898;52.102;5.776;2022-12-18T06:23:47;1.20;90.20
36990;DHT22;22898;52.102;5.776;2022-12-18T06:26:13;1.00;90.60
36990;DHT22;22898;52.102;5.776;2022-12-18T06:28:39;1.00;90.50
36990;DHT22;22898;52.102;5.776;2022-12-18T06:31:06;0.90;91.20
36990;DHT22;22898;52.102;5.776;2022-12-18T06:33:32;1.00;90.70
36990;DHT22;22898;52.102;5.776;2022-12-18T06:36:06;0.90;91.00
36990;DHT22;22898;52.102;5.776;2022-12-18T06:38:33;1.10;90.50
36990;DHT22;22898;52.102;5.776;2022-12-18T06:41:00;1.10;90.60
36990;DHT22;22898;52.102;5.776;2022-12-18T06:43:25;1.00;90.90
36990;DHT22;22898;52.102;5.776;2022-12-18T06:45:57;1.00;90.80
36990;DHT22;22898;52.102;5.776;2022-12-18T06:48:24;1.00;91.10
36990;DHT22;22898;52.102;5.776;2022-12-18T06:50:49;0.90;91.10
36990;DHT22;22898;52.102;5.776;2022-12-18T06:53:15;1.00;91.20
36990;DHT22;22898;52.102;5.776;2022-12-18T06:55:41;1.20;90.90
36990;DHT22;22898;52.102;5.776;2022-12-18T06:58:06;1.40;90.60
36990;DHT22;22898;52.102;5.776;2022-12-18T07:00:32;1.50;90.20
36990;DHT22;22898;52.102;5.776;2022-12-18T07:02:57;1.30;90.60
36990;DHT22;22898;52.102;5.776;2022-12-18T07:05:23;1.40;90.60
36990;DHT22;22898;52.102;5.776;2022-12-18T07:07:48;1.50;90.50
36990;DHT22;22898;52.102;5.776;2022-12-18T07:10:14;1.60;90.30
36990;DHT22;22898;52.102;5.776;2022-12-18T07:12:39;1.70;90.30
36990;DHT22;22898;52.102;5.776;2022-12-18T07:15:06;1.80;90.00
36990;DHT22;22898;52.102;5.776;2022-12-18T07:17:32;1.80;90.10
36990;DHT22;22898;52.102;5.776;2022-12-18T07:19:58;1.90;89.80
36990;DHT22;22898;52.102;5.776;2022-12-18T07:22:25;1.90;89.80
36990;DHT22;22898;52.102;5.776;2022-12-18T07:24:51;1.90;90.00
36990;DHT22;22898;52.102;5.776;2022-12-18T07:27:16;1.80;90.10
36990;DHT22;22898;52.102;5.776;2022-12-18T07:29:42;1.80;90.20
36990;DHT22;22898;52.102;5.776;2022-12-18T07:32:08;1.70;90.40
36990;DHT22;22898;52.102;5.776;2022-12-18T07:34:34;1.70;90.50
36990;DHT22;22898;52.102;5.776;2022-12-18T07:36:59;1.80;90.30
36990;DHT22;22898;52.102;5.776;2022-12-18T07:39:25;1.90;90.20
36990;DHT22;22898;52.102;5.776;2022-12-18T07:41:50;1.70;90.60
36990;DHT22;22898;52.102;5.776;2022-12-18T07:44:35;1.50;90.60
36990;DHT22;22898;52.102;5.776;2022-12-18T07:47:01;1.60;91.10
36990;DHT22;22898;52.102;5.776;2022-12-18T07:49:27;1.50;91.10
36990;DHT22;22898;52.102;5.776;2022-12-18T07:51:55;1.60;91.00
36990;DHT22;22898;52.102;5.776;2022-12-18T07:54:22;1.60;91.10
36990;DHT22;22898;52.102;5.776;2022-12-18T07:56:47;1.50;91.20
36990;DHT22;22898;52.102;5.776;2022-12-18T07:59:13;1.30;91.80
36990;DHT22;22898;52.102;5.776;2022-12-18T08:01:38;1.30;92.20
36990;DHT22;22898;52.102;5.776;2022-12-18T08:04:04;1.10;92.70
36990;DHT22;22898;52.102;5.776;2022-12-18T08:06:29;1.00;92.70
36990;DHT22;22898;52.102;5.776;2022-12-18T08:08:56;1.00;93.30
36990;DHT22;22898;52.102;5.776;2022-12-18T08:11:23;1.10;93.00
36990;DHT22;22898;52.102;5.776;2022-12-18T08:13:49;1.30;93.00
36990;DHT22;22898;52.102;5.776;2022-12-18T08:16:14;1.50;92.70
36990;DHT22;22898;52.102;5.776;2022-12-18T08:18:40;1.40;93.10
36990;DHT22;22898;52.102;5.776;2022-12-18T08:21:17;1.30;93.40
36990;DHT22;22898;52.102;5.776;2022-12-18T08:23:43;1.30;93.60
36990;DHT22;22898;52.102;5.776;2022-12-18T08:26:13;1.10;93.90
36990;DHT22;22898;52.102;5.776;2022-12-18T08:28:40;1.20;94.10
36990;DHT22;22898;52.102;5.776;2022-12-18T08:31:07;1.30;93.90
36990;DHT22;22898;52.102;5.776;2022-12-18T08:33:33;1.40;93.90
36990;DHT22;22898;52.102;5.776;2022-12-18T08:36:00;1.70;93.50
36990;DHT22;22898;52.102;5.776;2022-12-18T08:38:25;1.50;93.60
36990;DHT22;22898;52.102;5.776;2022-12-18T08:41:06;1.30;94.20
36990;DHT22;22898;52.102;5.776;2022-12-18T08:43:31;1.40;94.30
36990;DHT22;22898;52.102;5.776;2022-12-18T08:46:17;1.70;94.00
36990;DHT22;22898;52.102;5.776;2022-12-18T08:48:43;1.80;93.50
36990;DHT22;22898;52.102;5.776;2022-12-18T08:51:09;2.10;93.50
36990;DHT22;22898;52.102;5.776;2022-12-18T08:53:35;2.30;92.80
36990;DHT22;22898;52.102;5.776;2022-12-18T08:56:01;2.30;92.80
36990;DHT22;22898;52.102;5.776;2022-12-18T08:58:27;2.40;92.60
36990;DHT22;22898;52.102;5.776;2022-12-18T09:00:52;2.30;92.70
36990;DHT22;22898;52.102;5.776;2022-12-18T09:03:19;2.60;92.30
36990;DHT22;22898;52.102;5.776;2022-12-18T09:05:48;2.40;92.60
36990;DHT22;22898;52.102;5.776;2022-12-18T09:08:14;2.40;92.70
36990;DHT22;22898;52.102;5.776;2022-12-18T09:10:47;2.50;92.50
36990;DHT22;22898;52.102;5.776;2022-12-18T09:13:14;2.40;93.00
36990;DHT22;22898;52.102;5.776;2022-12-18T09:15:45;2.70;92.90
36990;DHT22;22898;52.102;5.776;2022-12-18T09:18:11;3.00;91.90
36990;DHT22;22898;52.102;5.776;2022-12-18T09:20:37;3.10;91.60
36990;DHT22;22898;52.102;5.776;2022-12-18T09:23:04;2.90;92.00
36990;DHT22;22898;52.102;5.776;2022-12-18T09:25:31;2.80;92.10
36990;DHT22;22898;52.102;5.776;2022-12-18T09:28:04;3.10;91.80
36990;DHT22;22898;52.102;5.776;2022-12-18T09:30:30;3.20;91.70
36990;DHT22;22898;52.102;5.776;2022-12-18T09:32:55;3.30;91.40
36990;DHT22;22898;52.102;5.776;2022-12-18T09:35:21;3.30;91.40
36990;DHT22;22898;52.102;5.776;2022-12-18T09:37:47;3.10;91.90
36990;DHT22;22898;52.102;5.776;2022-12-18T09:40:22;2.90;92.20
36990;DHT22;22898;52.102;5.776;2022-12-18T09:42:57;3.30;91.40
36990;DHT22;22898;52.102;5.776;2022-12-18T09:45:24;3.20;91.60
36990;DHT22;22898;52.102;5.776;2022-12-18T09:47:51;3.40;91.80
36990;DHT22;22898;52.102;5.776;2022-12-18T09:52:55;3.60;91.30
36990;DHT22;22898;52.102;5.776;2022-12-18T09:55:30;3.50;91.20
36990;DHT22;22898;52.102;5.776;2022-12-18T09:58:04;3.60;91.50
36990;DHT22;22898;52.102;5.776;2022-12-18T10:00:31;3.60;91.20
36990;DHT22;22898;52.102;5.776;2022-12-18T10:03:03;3.60;91.10
36990;DHT22;22898;52.102;5.776;2022-12-18T10:05:40;3.40;91.20
36990;DHT22;22898;52.102;5.776;2022-12-18T10:08:33;3.30;91.50
36990;DHT22;22898;52.102;5.776;2022-12-18T10:11:34;3.20;92.10
36990;DHT22;22898;52.102;5.776;2022-12-18T10:14:16;3.40;91.60
36990;DHT22;22898;52.102;5.776;2022-12-18T10:17:12;3.30;91.80
36990;DHT22;22898;52.102;5.776;2022-12-18T10:19:48;3.50;91.60
36990;DHT22;22898;52.102;5.776;2022-12-18T10:27:29;3.40;91.70
36990;DHT22;22898;52.102;5.776;2022-12-18T10:29:56;3.40;91.70
36990;DHT22;22898;52.102;5.776;2022-12-18T10:32:27;3.50;91.40
36990;DHT22;22898;52.102;5.776;2022-12-18T10:34:57;3.60;91.20
36990;DHT22;22898;52.102;5.776;2022-12-18T10:37:25;3.70;91.50
36990;DHT22;22898;52.102;5.776;2022-12-18T10:40:15;3.90;90.70
36990;DHT22;22898;52.102;5.776;2022-12-18T10:42:41;4.10;90.80
36990;DHT22;22898;52.102;5.776;2022-12-18T10:45:12;4.40;90.00
36990;DHT22;22898;52.102;5.776;2022-12-18T10:47:43;4.20;90.10
36990;DHT22;22898;52.102;5.776;2022-12-18T10:50:39;3.60;91.20
36990;DHT22;22898;52.102;5.776;2022-12-18T10:53:05;3.90;90.90
36990;DHT22;22898;52.102;5.776;2022-12-18T10:55:38;4.00;90.60
36990;DHT22;22898;52.102;5.776;2022-12-18T10:58:28;4.30;90.40
36990;DHT22;22898;52.102;5.776;2022-12-18T11:03:37;4.60;88.70
36990;DHT22;22898;52.102;5.776;2022-12-18T11:06:15;4.50;90.00
36990;DHT22;22898;52.102;5.776;2022-12-18T11:08:42;4.40;89.70
36990;DHT22;22898;52.102;5.776;2022-12-18T11:11:22;4.50;89.70
36990;DHT22;22898;52.102;5.776;2022-12-18T11:16:25;5.10;87.50
36990;DHT22;22898;52.102;5.776;2022-12-18T11:18:51;4.80;88.50
36990;DHT22;22898;52.102;5.776;2022-12-18T11:21:17;4.90;87.90
36990;DHT22;22898;52.102;5.776;2022-12-18T11:24:00;4.90;88.20
36990;DHT22;22898;52.102;5.776;2022-12-18T11:26:34;5.10;87.00
36990;DHT22;22898;52.102;5.776;2022-12-18T11:29:15;5.10;86.90
36990;DHT22;22898;52.102;5.776;2022-12-18T11:31:42;5.20;87.00
36990;DHT22;22898;52.102;5.776;2022-12-18T11:34:19;5.40;87.00
36990;DHT22;22898;52.102;5.776;2022-12-18T11:36:46;5.10;87.40
36990;DHT22;22898;52.102;5.776;2022-12-18T11:44:59;5.70;85.40
36990;DHT22;22898;52.102;5.776;2022-12-18T11:50:29;5.20;86.90
36990;DHT22;22898;52.102;5.776;2022-12-18T11:52:55;5.30;87.30
36990;DHT22;22898;52.102;5.776;2022-12-18T11:58:17;5.60;86.00
36990;DHT22;22898;52.102;5.776;2022-12-18T12:00:59;5.60;86.00
36990;DHT22;22898;52.102;5.776;2022-12-18T12:03:53;6.00;85.20
36990;DHT22;22898;52.102;5.776;2022-12-18T12:12:10;6.10;83.00
36990;DHT22;22898;52.102;5.776;2022-12-18T12:23:04;6.30;83.00
36990;DHT22;22898;52.102;5.776;2022-12-18T12:25:46;5.90;84.20
36990;DHT22;22898;52.102;5.776;2022-12-18T12:34:05;6.20;83.20
36990;DHT22;22898;52.102;5.776;2022-12-18T12:39:34;6.20;83.00
36990;DHT22;22898;52.102;5.776;2022-12-18T12:42:04;6.40;82.60
36990;DHT22;22898;52.102;5.776;2022-12-18T12:44:55;6.10;82.60
36990;DHT22;22898;52.102;5.776;2022-12-18T12:47:35;6.00;83.00
36990;DHT22;22898;52.102;5.776;2022-12-18T12:50:05;6.20;82.60
36990;DHT22;22898;52.102;5.776;2022-12-18T12:52:55;6.20;82.20
36990;DHT22;22898;52.102;5.776;2022-12-18T12:55:24;6.40;81.70
36990;DHT22;22898;52.102;5.776;2022-12-18T12:58:15;6.40;81.30
36990;DHT22;22898;52.102;5.776;2022-12-18T13:01:12;6.20;82.70
36990;DHT22;22898;52.102;5.776;2022-12-18T13:03:44;5.90;82.80
36990;DHT22;22898;52.102;5.776;2022-12-18T13:09:03;6.00;82.80
36990;DHT22;22898;52.102;5.776;2022-12-18T13:11:46;5.80;83.40
36990;DHT22;22898;52.102;5.776;2022-12-18T13:14:36;5.80;83.60
36990;DHT22;22898;52.102;5.776;2022-12-18T13:19:40;6.10;82.20
36990;DHT22;22898;52.102;5.776;2022-12-18T13:22:39;6.10;83.50
36990;DHT22;22898;52.102;5.776;2022-12-18T13:25:29;6.10;81.70
36990;DHT22;22898;52.102;5.776;2022-12-18T13:28:05;6.00;82.30
36990;DHT22;22898;52.102;5.776;2022-12-18T13:38:32;5.80;83.00
36990;DHT22;22898;52.102;5.776;2022-12-18T13:43:44;6.10;82.20
36990;DHT22;22898;52.102;5.776;2022-12-18T13:49:01;6.60;81.40
36990;DHT22;22898;52.102;5.776;2022-12-18T13:51:31;6.80;80.50
36990;DHT22;22898;52.102;5.776;2022-12-18T13:54:02;7.00;79.40
36990;DHT22;22898;52.102;5.776;2022-12-18T13:56:32;7.10;79.30
36990;DHT22;22898;52.102;5.776;2022-12-18T14:01:58;6.50;81.00
36990;DHT22;22898;52.102;5.776;2022-12-18T14:04:32;6.50;80.40
36990;DHT22;22898;52.102;5.776;2022-12-18T14:07:01;6.50;80.20
36990;DHT22;22898;52.102;5.776;2022-12-18T14:09:35;6.30;80.90
36990;DHT22;22898;52.102;5.776;2022-12-18T14:12:02;6.30;81.30
36990;DHT22;22898;52.102;5.776;2022-12-18T14:14:48;6.30;81.60
36990;DHT22;22898;52.102;5.776;2022-12-18T14:17:15;6.30;81.30
36990;DHT22;22898;52.102;5.776;2022-12-18T14:19:49;6.20;81.30
36990;DHT22;22898;52.102;5.776;2022-12-18T14:22:24;6.20;81.40
36990;DHT22;22898;52.102;5.776;2022-12-18T14:27:42;6.20;81.60
36990;DHT22;22898;52.102;5.776;2022-12-18T14:33:05;6.10;81.40
36990;DHT22;22898;52.102;5.776;2022-12-18T14:35:43;6.00;82.80
36990;DHT22;22898;52.102;5.776;2022-12-18T14:38:09;6.10;81.30
36990;DHT22;22898;52.102;5.776;2022-12-18T14:40:35;6.30;80.70
36990;DHT22;22898;52.102;5.776;2022-12-18T14:43:00;6.50;79.80
36990;DHT22;22898;52.102;5.776;2022-12-18T14:45:36;6.50;79.90
36990;DHT22;22898;52.102;5.776;2022-12-18T14:48:52;6.60;78.70
36990;DHT22;22898;52.102;5.776;2022-12-18T14:50:58;6.20;80.70
36990;DHT22;22898;52.102;5.776;2022-12-18T14:53:43;6.10;81.90
36990;DHT22;22898;52.102;5.776;2022-12-18T14:56:24;6.10;81.60
36990;DHT22;22898;52.102;5.776;2022-12-18T15:01:20;6.30;80.50
36990;DHT22;22898;52.102;5.776;2022-12-18T15:03:46;6.10;81.40
36990;DHT22;22898;52.102;5.776;2022-12-18T15:06:26;6.00;81.60
36990;DHT22;22898;52.102;5.776;2022-12-18T15:08:52;6.20;81.10
36990;DHT22;22898;52.102;5.776;2022-12-18T15:11:43;6.20;81.40
36990;DHT22;22898;52.102;5.776;2022-12-18T15:14:32;6.30;81.40
36990;DHT22;22898;52.102;5.776;2022-12-18T15:17:01;6.50;80.50
36990;DHT22;22898;52.102;5.776;2022-12-18T15:19:39;6.50;80.30
36990;DHT22;22898;52.102;5.776;2022-12-18T15:22:21;6.20;80.70
36990;DHT22;22898;52.102;5.776;2022-12-18T15:24:49;6.20;81.30
36990;DHT22;22898;52.102;5.776;2022-12-18T15:32:31;5.90;81.90
36990;DHT22;22898;52.102;5.776;2022-12-18T15:35:16;6.00;81.80
36990;DHT22;22898;52.102;5.776;2022-12-18T15:37:43;6.20;81.60
36990;DHT22;22898;52.102;5.776;2022-12-18T15:40:19;6.20;81.60
36990;DHT22;22898;52.102;5.776;2022-12-18T15:42:46;6.50;80.50
36990;DHT22;22898;52.102;5.776;2022-12-18T15:45:30;6.60;80.00
36990;DHT22;22898;52.102;5.776;2022-12-18T15:47:56;6.50;80.40
36990;DHT22;22898;52.102;5.776;2022-12-18T15:50:22;6.70;80.00
36990;DHT22;22898;52.102;5.776;2022-12-18T15:52:50;6.60;79.70
36990;DHT22;22898;52.102;5.776;2022-12-18T15:55:21;6.60;80.70
36990;DHT22;22898;52.102;5.776;2022-12-18T15:58:06;6.60;80.10
36990;DHT22;22898;52.102;5.776;2022-12-18T16:00:33;6.70;79.50
36990;DHT22;22898;52.102;5.776;2022-12-18T16:03:00;7.10;78.80
36990;DHT22;22898;52.102;5.776;2022-12-18T16:05:26;7.20;78.50
36990;DHT22;22898;52.102;5.776;2022-12-18T16:07:52;7.00;78.80
36990;DHT22;22898;52.102;5.776;2022-12-18T16:10:18;6.90;78.90
36990;DHT22;22898;52.102;5.776;2022-12-18T16:12:44;6.60;80.00
36990;DHT22;22898;52.102;5.776;2022-12-18T16:15:12;6.60;79.70
36990;DHT22;22898;52.102;5.776;2022-12-18T16:17:39;6.60;79.90
36990;DHT22;22898;52.102;5.776;2022-12-18T16:20:15;6.60;79.90
36990;DHT22;22898;52.102;5.776;2022-12-18T16:22:42;6.40;80.20
36990;DHT22;22898;52.102;5.776;2022-12-18T16:25:23;6.30;81.00
36990;DHT22;22898;52.102;5.776;2022-12-18T16:27:50;6.50;80.40
36990;DHT22;22898;52.102;5.776;2022-12-18T16:30:20;6.60;80.40
36990;DHT22;22898;52.102;5.776;2022-12-18T16:32:46;6.70;79.60
36990;DHT22;22898;52.102;5.776;2022-12-18T16:35:14;6.50;79.90
36990;DHT22;22898;52.102;5.776;2022-12-18T16:37:40;6.30;80.50
36990;DHT22;22898;52.102;5.776;2022-12-18T16:40:12;6.50;80.00
36990;DHT22;22898;52.102;5.776;2022-12-18T16:42:42;6.40;80.30
36990;DHT22;22898;52.102;5.776;2022-12-18T16:45:11;6.30;80.70
36990;DHT22;22898;52.102;5.776;2022-12-18T16:47:38;6.40;80.50
36990;DHT22;22898;52.102;5.776;2022-12-18T16:50:04;6.60;79.90
36990;DHT22;22898;52.102;5.776;2022-12-18T16:52:30;6.30;79.80
36990;DHT22;22898;52.102;5.776;2022-12-18T16:54:56;6.20;80.60
36990;DHT22;22898;52.102;5.776;2022-12-18T16:57:22;6.50;80.00
36990;DHT22;22898;52.102;5.776;2022-12-18T16:59:48;6.60;79.40
36990;DHT22;22898;52.102;5.776;2022-12-18T17:02:16;6.70;79.80
36990;DHT22;22898;52.102;5.776;2022-12-18T17:04:42;6.50;79.90
36990;DHT22;22898;52.102;5.776;2022-12-18T17:07:09;6.50;80.20
36990;DHT22;22898;52.102;5.776;2022-12-18T17:09:34;6.40;80.20
36990;DHT22;22898;52.102;5.776;2022-12-18T17:12:00;6.00;81.40
36990;DHT22;22898;52.102;5.776;2022-12-18T17:14:26;6.30;81.00
36990;DHT22;22898;52.102;5.776;2022-12-18T17:16:52;5.90;81.80
36990;DHT22;22898;52.102;5.776;2022-12-18T17:19:18;6.20;81.40
36990;DHT22;22898;52.102;5.776;2022-12-18T17:21:47;6.10;81.00
36990;DHT22;22898;52.102;5.776;2022-12-18T17:24:14;6.30;80.60
36990;DHT22;22898;52.102;5.776;2022-12-18T17:26:40;6.20;81.10
36990;DHT22;22898;52.102;5.776;2022-12-18T17:29:05;5.90;81.70
36990;DHT22;22898;52.102;5.776;2022-12-18T17:31:32;5.70;82.80
36990;DHT22;22898;52.102;5.776;2022-12-18T17:33:59;5.80;82.60
36990;DHT22;22898;52.102;5.776;2022-12-18T17:36:25;5.60;83.00
36990;DHT22;22898;52.102;5.776;2022-12-18T17:38:57;5.80;82.30
36990;DHT22;22898;52.102;5.776;2022-12-18T17:41:24;5.80;82.50
36990;DHT22;22898;52.102;5.776;2022-12-18T17:43:54;5.40;83.80
36990;DHT22;22898;52.102;5.776;2022-12-18T17:46:20;5.60;83.50
36990;DHT22;22898;52.102;5.776;2022-12-18T17:48:46;5.50;83.60
36990;DHT22;22898;52.102;5.776;2022-12-18T17:51:12;5.40;84.10